Aérodrome :
LOGIN :

S'inscrire | Disclaimer

   EN    FR    IT 

 










Légende :    VFR   VFR Marginal   IFR   IFR Intensif   IFR Très Intensif
Visi : 
Plafond : 
>= 8 km
>= 3000ft
5 à 8 km
1000 à 3000 ft
1500m à 5 km
500 à 1000 ft
800 à 1500m
200 à 500 ft
< 800m
< 200 ft
Symboles :   Orages  Brouillard  Fortes neiges  Fortes précipitations  Vent > 20 kt
SIGMETs :   Divers  Orages  Givrage  Turbulence  Onde Orograph.  Cendres Volcan.






- Altitude de l'aérodrome : 32 ft
- Code IATA : LKZ


EGUL - RAF Lakenheath

DERNIER METAR :
  • 281056Z AUTO 23015G21KT 9999 CLR 12/09 A2954 RMK AO2 SLP007 T01190093 $

METARs EXPIRÉS :
  • 280956Z AUTO 22019G24KT 9999 CLR 12/09 A2954 RMK AO2 PK WND 21026/32 SLP007 T01150092 $
  • 280856Z AUTO 22017KT 9999 CLR 10/08 A2953 RMK AO2 SLP003 T01020080 53008 $

TAF TAF EGUL
Valide du 28 à 04h jusqu'au 29 à 10h UTC


280400Z 2804/2910 21012G18KT 9999 SCT030 QNH2946INS
BECMG 2811/2812 23015G25KT 9999 VCSH BKN030 QNH2950INS
TEMPO 2815/2818 9000 -SHRA BKN025
BECMG 2822/2823 24010G15KT 9999 NSW SCT030 QNH2979INS TX13/2813Z TN06/2807Z



MET'MAP, la Météo Aéronautique d'un coup d'oeil ! - Copyright ORBIFLY Décembre 2007 - Disclaimer

ORBIFLY MET'MAP TEAM :

Programmation & Développement : Alexandra Zaïnal
Sur une idée originale de : Baudouin d'Aumeries
Assistance à la programmation : Marc-Olivier Méhu
Soutien technique & logistique : Manuel Goepfert

Contact : metmap@orbifly.com




SOURCES & CREDITS :

   NOAA